createdAt,value
2022-10-10T00:01:37.544Z,101287.56
2022-10-10T00:04:07.069Z,101281.38
2022-10-10T00:06:35.269Z,101281.38
2022-10-10T00:09:06.539Z,101283.19
2022-10-10T00:11:34.556Z,101277.00
2022-10-10T00:14:02.930Z,101277.91
2022-10-10T00:16:31.223Z,101271.72
2022-10-10T00:18:59.712Z,101264.75
2022-10-10T00:21:27.726Z,101268.31
2022-10-10T00:23:56.061Z,101261.31
2022-10-10T00:26:25.694Z,101270.13
2022-10-10T00:28:53.838Z,101268.34
2022-10-10T00:31:22.131Z,101267.47
2022-10-10T00:33:52.243Z,101265.72
2022-10-10T00:36:21.549Z,101264.84
2022-10-10T00:38:49.593Z,101263.94
2022-10-10T00:41:17.812Z,101256.06
2022-10-10T00:44:09.133Z,101252.53
2022-10-10T00:46:37.234Z,101248.13
2022-10-10T00:49:07.926Z,101248.97
2022-10-10T00:51:36.043Z,101249.84
2022-10-10T00:54:07.420Z,101246.34
2022-10-10T00:56:41.320Z,101245.47
2022-10-10T00:59:12.614Z,101244.63
2022-10-10T01:01:41.745Z,101243.75
2022-10-10T01:04:34.803Z,101242.00
2022-10-10T01:07:06.080Z,101234.97
2022-10-10T01:09:37.042Z,101239.38
2022-10-10T01:12:17.963Z,101231.44
2022-10-10T01:14:57.449Z,101234.97
2022-10-10T01:17:30.685Z,101231.44
2022-10-10T01:20:28.601Z,101224.41
2022-10-10T01:23:20.918Z,101228.00
2022-10-10T01:26:02.557Z,101221.81
2022-10-10T01:28:41.334Z,101222.69
2022-10-10T01:31:13.926Z,101221.81
2022-10-10T01:33:54.811Z,101216.53
2022-10-10T01:36:28.808Z,101213.91
2022-10-10T01:39:02.993Z,101201.59
2022-10-10T01:41:37.867Z,101202.44
2022-10-10T01:44:07.319Z,101196.28
2022-10-10T01:46:35.640Z,101196.31
2022-10-10T01:49:04.169Z,101191.03
2022-10-10T01:51:48.926Z,101193.69
2022-10-10T01:54:34.094Z,101184.00
2022-10-10T01:57:16.296Z,101185.75
2022-10-10T02:00:00.527Z,101176.94
2022-10-10T02:02:40.106Z,101176.97
2022-10-10T02:05:16.145Z,101175.19
2022-10-10T02:07:48.664Z,101169.00
2022-10-10T02:10:22.436Z,101164.59
2022-10-10T02:12:51.494Z,101167.22
2022-10-10T02:15:24.005Z,101169.88
2022-10-10T02:17:54.415Z,101158.44
2022-10-10T02:20:26.087Z,101157.53
2022-10-10T02:22:55.886Z,101155.78
2022-10-10T02:25:29.303Z,101148.75
2022-10-10T02:28:08.216Z,101148.75
2022-10-10T02:30:44.212Z,101149.66
2022-10-10T02:33:17.677Z,101154.91
2022-10-10T02:35:50.514Z,101150.56
2022-10-10T02:38:19.996Z,101144.34
2022-10-10T02:40:49.400Z,101148.78
2022-10-10T02:43:19.156Z,101147.91
2022-10-10T02:45:48.824Z,101142.66
2022-10-10T02:48:16.923Z,101136.47
2022-10-10T02:50:45.668Z,101141.78
2022-10-10T02:53:13.734Z,101139.09
2022-10-10T02:55:41.783Z,101142.69
2022-10-10T02:58:09.853Z,101145.28
2022-10-10T03:00:37.828Z,101138.22
2022-10-10T03:03:07.374Z,101140.91
2022-10-10T03:05:35.304Z,101145.34
2022-10-10T03:08:05.854Z,101138.25
2022-10-10T03:10:36.139Z,101145.25
2022-10-10T03:13:04.254Z,101136.50
2022-10-10T03:15:32.318Z,101143.53
2022-10-10T03:18:00.571Z,101140.91
2022-10-10T03:20:30.045Z,101132.09
2022-10-10T03:22:58.053Z,101130.34
2022-10-10T03:25:26.180Z,101127.72
2022-10-10T03:27:54.403Z,101134.75
2022-10-10T03:30:22.598Z,101135.66
2022-10-10T03:32:50.719Z,101129.50
2022-10-10T03:35:19.067Z,101128.63
2022-10-10T03:37:48.526Z,101119.78
2022-10-10T03:40:16.716Z,101122.44
2022-10-10T03:42:44.687Z,101118.94
2022-10-10T03:45:12.795Z,101122.47
2022-10-10T03:47:40.816Z,101123.31
2022-10-10T03:50:09.788Z,101113.66
2022-10-10T03:52:38.542Z,101125.97
2022-10-10T03:55:09.194Z,101122.47
2022-10-10T03:57:37.275Z,101121.59
2022-10-10T04:00:06.031Z,101122.44
2022-10-10T04:02:34.217Z,101118.97
2022-10-10T04:05:03.505Z,101118.94
2022-10-10T04:07:32.320Z,101118.06
2022-10-10T04:10:00.435Z,101123.34
2022-10-10T04:12:29.941Z,101119.00
2022-10-10T04:14:57.961Z,101120.72
2022-10-10T04:17:26.234Z,101102.28
2022-10-10T04:19:54.293Z,101087.34
2022-10-10T04:22:22.426Z,101085.63
2022-10-10T04:24:50.491Z,101080.31
2022-10-10T04:27:18.476Z,101084.66
2022-10-10T04:29:47.819Z,101079.47
2022-10-10T04:32:15.875Z,101073.25
2022-10-10T04:34:44.022Z,101074.16
2022-10-10T04:37:12.158Z,101061.84
2022-10-10T04:39:40.307Z,101071.47
2022-10-10T04:42:08.404Z,101069.75
2022-10-10T04:44:36.814Z,101065.38
2022-10-10T04:47:08.841Z,101065.44
2022-10-10T04:49:36.918Z,101071.47
2022-10-10T04:52:05.140Z,101069.75
2022-10-10T04:54:33.243Z,101056.59
2022-10-10T04:57:01.575Z,101064.47
2022-10-10T04:59:29.593Z,101059.19
2022-10-10T05:02:01.477Z,101063.63
2022-10-10T05:04:31.544Z,101053.06
2022-10-10T05:06:59.959Z,101048.66
2022-10-10T05:09:28.172Z,101057.44
2022-10-10T05:11:56.220Z,101053.09
2022-10-10T05:14:24.196Z,101046.03
2022-10-10T05:16:52.196Z,101055.72
2022-10-10T05:19:20.203Z,101047.91
2022-10-10T05:21:49.598Z,101047.81
2022-10-10T05:24:17.812Z,101048.69
2022-10-10T05:26:46.053Z,101050.44
2022-10-10T05:29:14.125Z,101046.03
2022-10-10T05:31:42.090Z,101038.13
2022-10-10T05:34:13.853Z,101028.44
2022-10-10T05:36:42.028Z,101034.59
2022-10-10T05:39:11.591Z,101030.19
2022-10-10T05:41:39.626Z,101034.59
2022-10-10T05:44:07.832Z,101027.56
2022-10-10T05:46:36.475Z,101020.50
2022-10-10T05:49:04.887Z,101031.91
2022-10-10T05:51:32.917Z,101026.63
2022-10-10T05:54:01.312Z,101020.47
2022-10-10T05:56:31.667Z,101022.22
2022-10-10T05:58:59.841Z,101013.38
2022-10-10T06:01:28.198Z,101005.50
2022-10-10T06:03:56.910Z,101010.75
2022-10-10T06:06:26.391Z,101003.72
2022-10-10T06:08:54.670Z,101002.81
2022-10-10T06:11:25.086Z,101004.53
2022-10-10T06:13:55.275Z,101012.41
2022-10-10T06:16:23.514Z,101009.78
2022-10-10T06:18:51.793Z,101009.75
2022-10-10T06:21:20.576Z,101004.50
2022-10-10T06:23:49.544Z,101012.34
2022-10-10T06:26:17.707Z,101025.47
2022-10-10T06:28:45.962Z,101015.78
2022-10-10T06:31:16.123Z,101020.22
2022-10-10T06:33:46.243Z,101021.94
2022-10-10T06:36:16.490Z,101025.44
2022-10-10T06:38:46.308Z,101025.41
2022-10-10T06:41:14.741Z,101029.81
2022-10-10T06:43:43.333Z,101033.31
2022-10-10T06:46:11.872Z,101030.63
2022-10-10T06:48:41.464Z,101022.66
2022-10-10T06:51:13.940Z,101019.97
2022-10-10T06:53:42.935Z,101019.78
2022-10-10T06:56:17.391Z,101023.19
2022-10-10T06:58:45.780Z,101026.63
2022-10-10T07:01:13.785Z,101025.75
2022-10-10T07:03:43.181Z,101021.25
2022-10-10T07:06:12.576Z,101018.56
2022-10-10T07:08:41.542Z,101022.91
2022-10-10T07:11:11.486Z,101013.06
2022-10-10T07:13:39.941Z,101010.31
2022-10-10T07:16:08.564Z,101008.50
2022-10-10T07:18:37.729Z,101016.34
2022-10-10T07:21:07.521Z,101018.94
2022-10-10T07:23:36.979Z,101022.38
2022-10-10T07:26:07.777Z,101013.44
2022-10-10T07:28:36.056Z,101020.41
2022-10-10T07:31:05.772Z,101021.22
2022-10-10T07:33:34.897Z,101013.16
2022-10-10T07:36:02.933Z,101012.88
2022-10-10T07:38:32.529Z,101015.66
2022-10-10T07:41:00.815Z,101013.00
2022-10-10T07:43:28.834Z,101012.88
2022-10-10T07:45:56.761Z,101007.41
2022-10-10T07:48:24.936Z,101016.16
2022-10-10T07:50:52.868Z,101009.94
2022-10-10T07:53:20.843Z,100999.22
2022-10-10T07:55:50.591Z,100992.94
2022-10-10T07:58:18.770Z,100992.81
2022-10-10T08:00:47.216Z,100994.47
2022-10-10T08:03:15.178Z,100990.78
2022-10-10T08:05:44.005Z,101002.16
2022-10-10T08:08:12.980Z,100982.50
2022-10-10T08:10:44.952Z,100981.38
2022-10-10T08:13:14.559Z,100978.56
2022-10-10T08:15:42.863Z,100972.38
2022-10-10T08:18:10.819Z,100978.41
2022-10-10T08:20:38.820Z,100979.19
2022-10-10T08:23:06.893Z,100977.34
2022-10-10T08:25:35.071Z,100984.25
2022-10-10T08:28:03.577Z,100977.81
2022-10-10T08:30:33.057Z,100990.03
2022-10-10T08:33:01.584Z,100983.59
2022-10-10T08:35:29.643Z,100985.25
2022-10-10T08:37:57.692Z,100977.97
2022-10-10T08:40:28.778Z,100983.00
2022-10-10T08:42:59.706Z,100986.41
2022-10-10T08:45:29.999Z,100981.75
2022-10-10T08:48:02.884Z,100977.19
2022-10-10T08:50:34.481Z,100968.22
2022-10-10T08:53:09.621Z,100973.19
2022-10-10T08:55:43.859Z,100967.56
2022-10-10T08:58:17.676Z,100977.88
2022-10-10T09:00:49.236Z,100960.78
2022-10-10T09:03:28.330Z,100963.03
2022-10-10T09:06:13.745Z,100960.38
2022-10-10T09:08:50.307Z,100949.59
2022-10-10T09:11:41.201Z,100961.78
2022-10-10T09:14:20.549Z,100958.88
2022-10-10T09:16:54.854Z,100951.56
2022-10-10T09:19:40.328Z,100942.38
2022-10-10T09:22:14.535Z,100950.97
2022-10-10T09:24:46.706Z,100935.59
2022-10-10T09:27:21.437Z,100936.34
2022-10-10T09:29:55.033Z,100941.56
2022-10-10T09:32:26.793Z,100946.72
2022-10-10T09:35:02.737Z,100941.84
2022-10-10T09:37:46.978Z,100934.44
2022-10-10T09:40:24.017Z,100935.34
2022-10-10T09:42:52.372Z,100937.16
2022-10-10T09:45:24.480Z,100926.31
2022-10-10T09:47:55.164Z,100934.94
2022-10-10T09:50:25.304Z,100927.56
2022-10-10T09:52:54.207Z,100927.25
2022-10-10T09:55:28.289Z,100926.56
2022-10-10T09:58:02.429Z,100927.25
2022-10-10T10:00:35.950Z,100916.28
2022-10-10T10:03:13.938Z,100923.38
2022-10-10T10:05:47.169Z,100927.69
2022-10-10T10:08:25.865Z,100923.75
2022-10-10T10:10:58.134Z,100928.97
2022-10-10T10:13:30.571Z,100928.84
2022-10-10T10:16:03.039Z,100937.13
2022-10-10T10:18:38.932Z,100933.03
2022-10-10T10:21:29.510Z,100935.38
2022-10-10T10:24:00.252Z,100940.53
2022-10-10T10:26:33.159Z,100942.19
2022-10-10T10:29:01.186Z,100935.69
2022-10-10T10:31:43.926Z,100940.75
2022-10-10T10:34:30.514Z,100944.09
2022-10-10T10:37:14.585Z,100949.34
2022-10-10T10:39:55.248Z,100948.13
2022-10-10T10:42:40.713Z,100952.41
2022-10-10T10:45:17.602Z,100950.25
2022-10-10T10:47:55.034Z,100947.66
2022-10-10T10:50:36.117Z,100945.31
2022-10-10T10:53:16.321Z,100944.19
2022-10-10T10:55:50.514Z,100937.78
2022-10-10T10:59:05.817Z,100931.41
2022-10-10T11:01:44.960Z,100925.91
2022-10-10T11:05:22.443Z,100927.94
2022-10-10T11:07:21.209Z,100926.97
2022-10-10T11:09:56.671Z,100929.28
2022-10-10T11:12:42.025Z,100918.66
2022-10-10T11:15:15.764Z,100921.81
2022-10-10T11:17:49.765Z,100916.63
2022-10-10T11:20:24.294Z,100918.81
2022-10-10T11:22:57.106Z,100915.28
2022-10-10T11:25:29.936Z,100907.81
2022-10-10T11:28:06.451Z,100917.38
2022-10-10T11:30:40.650Z,100917.31
2022-10-10T11:33:14.177Z,100913.72
2022-10-10T11:35:47.344Z,100919.91
2022-10-10T11:38:23.342Z,100922.59
2022-10-10T11:40:57.898Z,100920.84
2022-10-10T11:43:33.035Z,100923.81
2022-10-10T11:46:09.646Z,100923.06
2022-10-10T11:48:48.203Z,100915.34
2022-10-10T11:51:37.082Z,100918.06
2022-10-10T11:54:15.705Z,100908.09
2022-10-10T11:56:47.600Z,100918.88
2022-10-10T11:59:24.071Z,100921.94
2022-10-10T12:01:56.192Z,100921.28
2022-10-10T12:04:24.570Z,100908.84
2022-10-10T12:06:58.987Z,100908.97
2022-10-10T12:09:33.422Z,100897.31
2022-10-10T12:12:07.196Z,100907.22
2022-10-10T12:14:40.046Z,100902.56
2022-10-10T12:17:21.433Z,100892.94
2022-10-10T12:19:51.514Z,100901.59
2022-10-10T12:22:25.882Z,100890.78
2022-10-10T12:25:22.326Z,100894.38
2022-10-10T12:28:07.214Z,100887.88
2022-10-10T12:30:35.261Z,100899.34
2022-10-10T12:33:03.321Z,100893.44
2022-10-10T12:35:37.849Z,100898.88
2022-10-10T12:38:20.899Z,100887.06
2022-10-10T12:41:12.772Z,100888.97
2022-10-10T12:44:12.705Z,100878.97
2022-10-10T12:46:40.780Z,100876.34
2022-10-10T12:49:21.181Z,100877.84
2022-10-10T12:52:05.718Z,100867.63
2022-10-10T12:54:39.482Z,100875.31
2022-10-10T12:57:16.121Z,100881.75
2022-10-10T12:59:46.134Z,100881.63
2022-10-10T13:02:21.539Z,100889.00
2022-10-10T13:04:51.745Z,100884.78
2022-10-10T13:07:22.105Z,100876.06
2022-10-10T13:09:54.075Z,100872.03
2022-10-10T13:12:27.673Z,100877.41
2022-10-10T13:14:57.873Z,100874.38
2022-10-10T13:17:29.195Z,100877.97
2022-10-10T13:19:59.366Z,100875.03
2022-10-10T13:22:29.741Z,100884.41
2022-10-10T13:24:59.256Z,100873.19
2022-10-10T13:27:29.284Z,100866.03
2022-10-10T13:29:59.027Z,100868.97
2022-10-10T13:32:29.601Z,100872.44
2022-10-10T13:35:00.551Z,100882.78
2022-10-10T13:37:32.504Z,100882.06
2022-10-10T13:40:02.239Z,100891.00
2022-10-10T13:42:34.205Z,100891.78
2022-10-10T13:45:29.511Z,100883.81
2022-10-10T13:48:13.228Z,100885.41
2022-10-10T13:50:56.694Z,100893.91
2022-10-10T13:53:33.049Z,100884.13
2022-10-10T13:56:06.314Z,100888.84
2022-10-10T13:58:41.919Z,100883.34
2022-10-10T14:01:31.664Z,100882.63
2022-10-10T14:04:04.325Z,100886.34
2022-10-10T14:06:32.844Z,100892.25
2022-10-10T14:09:10.276Z,100894.47
2022-10-10T14:11:38.558Z,100906.22
2022-10-10T14:14:10.400Z,100902.31
2022-10-10T14:16:43.426Z,100890.38
2022-10-10T14:19:19.095Z,100899.75
2022-10-10T14:21:47.100Z,100902.16
2022-10-10T14:24:16.757Z,100895.19
2022-10-10T14:26:44.828Z,100892.97
2022-10-10T14:29:15.180Z,100892.34
2022-10-10T14:31:47.045Z,100896.69
2022-10-10T14:34:15.737Z,100898.28
2022-10-10T14:36:47.659Z,100896.44
2022-10-10T14:39:16.787Z,100892.34
2022-10-10T14:41:45.545Z,100890.91
2022-10-10T14:44:13.791Z,100889.41
2022-10-10T14:46:42.401Z,100895.03
2022-10-10T14:49:18.639Z,100894.72
2022-10-10T14:51:47.123Z,100898.66
2022-10-10T14:54:15.649Z,100909.25
2022-10-10T14:57:08.408Z,100901.97
2022-10-10T14:59:46.389Z,100895.19
2022-10-10T15:02:16.916Z,100899.38
2022-10-10T15:04:46.538Z,100915.00
2022-10-10T15:07:15.495Z,100916.66
2022-10-10T15:10:02.541Z,100911.44
2022-10-10T15:12:32.728Z,100918.16
2022-10-10T15:15:00.803Z,100922.50
2022-10-10T15:17:30.462Z,100926.91
2022-10-10T15:20:01.410Z,100927.22
2022-10-10T15:22:30.667Z,100927.78
2022-10-10T15:24:58.845Z,100932.25
2022-10-10T15:27:28.463Z,100929.66
2022-10-10T15:29:56.433Z,100930.56
2022-10-10T15:32:24.403Z,100933.44
2022-10-10T15:34:52.592Z,100932.41
2022-10-10T15:37:25.003Z,100936.13
2022-10-10T15:39:53.025Z,100938.50
2022-10-10T15:42:23.008Z,100945.09
2022-10-10T15:44:51.970Z,100942.13
2022-10-10T15:47:20.654Z,100948.75
2022-10-10T15:49:49.310Z,100940.97
2022-10-10T15:52:17.373Z,100954.63
2022-10-10T15:54:49.411Z,100958.53
2022-10-10T15:57:19.138Z,100961.56
2022-10-10T15:59:47.841Z,100965.34
2022-10-10T16:02:15.887Z,100965.59
2022-10-10T16:04:44.339Z,100962.00
2022-10-10T16:07:25.790Z,100957.53
2022-10-10T16:09:56.473Z,100956.78
2022-10-10T16:12:24.581Z,100960.25
2022-10-10T16:14:52.614Z,100968.25
2022-10-10T16:17:23.399Z,100968.00
2022-10-10T16:19:52.277Z,100971.72
2022-10-10T16:22:20.400Z,100981.16
2022-10-10T16:25:21.373Z,100976.31
2022-10-10T16:27:38.771Z,100970.84
2022-10-10T16:30:08.481Z,100981.50
2022-10-10T16:32:42.039Z,100984.81
2022-10-10T16:35:11.565Z,100985.00
2022-10-10T16:37:39.750Z,100988.50
2022-10-10T16:40:09.785Z,100998.47
2022-10-10T16:42:41.607Z,101004.66
2022-10-10T16:45:11.107Z,101006.44
2022-10-10T16:47:39.393Z,101018.59
2022-10-10T16:50:08.893Z,101019.38
2022-10-10T16:52:38.439Z,101031.06
2022-10-10T16:55:11.409Z,101046.69
2022-10-10T16:57:41.819Z,101058.31
2022-10-10T17:00:11.290Z,101064.13
2022-10-10T17:02:42.495Z,101078.97
2022-10-10T17:05:11.134Z,101078.47
2022-10-10T17:07:39.167Z,101089.34
2022-10-10T17:10:08.649Z,101088.53
2022-10-10T17:12:36.811Z,101102.34
2022-10-10T17:15:07.410Z,101112.34
2022-10-10T17:17:36.150Z,101115.03
2022-10-10T17:20:06.016Z,101124.31
2022-10-10T17:22:34.085Z,101136.56
2022-10-10T17:25:02.096Z,101127.13
2022-10-10T17:27:30.126Z,101143.78
2022-10-10T17:29:58.364Z,101149.69
2022-10-10T17:32:27.909Z,101141.00
2022-10-10T17:34:55.920Z,101146.22
2022-10-10T17:37:23.887Z,101147.44
2022-10-10T17:39:52.360Z,101157.78
2022-10-10T17:42:20.723Z,101172.31
2022-10-10T17:44:52.460Z,101176.94
2022-10-10T17:47:23.578Z,101184.16
2022-10-10T17:49:53.122Z,101182.00
2022-10-10T17:52:21.677Z,101188.19
2022-10-10T17:54:50.227Z,101187.69
2022-10-10T17:57:18.564Z,101199.34
2022-10-10T17:59:46.669Z,101199.91
2022-10-10T18:02:17.105Z,101200.94
2022-10-10T18:04:45.534Z,101204.03
2022-10-10T18:07:16.057Z,101205.25
2022-10-10T18:09:44.234Z,101211.81
2022-10-10T18:12:13.121Z,101215.72
2022-10-10T18:14:44.060Z,101210.16
2022-10-10T18:17:12.499Z,101221.06
2022-10-10T18:19:40.699Z,101221.59
2022-10-10T18:22:08.858Z,101220.91
2022-10-10T18:24:38.430Z,101226.22
2022-10-10T18:27:06.473Z,101234.78
2022-10-10T18:29:34.620Z,101231.84
2022-10-10T18:32:02.758Z,101242.78
2022-10-10T18:34:31.083Z,101241.81
2022-10-10T18:36:59.075Z,101243.59
2022-10-10T18:39:32.203Z,101253.47
2022-10-10T18:42:02.428Z,101247.06
2022-10-10T18:44:30.660Z,101252.16
2022-10-10T18:46:58.696Z,101257.84
2022-10-10T18:49:28.008Z,101260.63
2022-10-10T18:51:56.532Z,101267.28
2022-10-10T18:54:27.235Z,101272.69
2022-10-10T18:56:55.359Z,101279.03
2022-10-10T18:59:24.952Z,101288.41
2022-10-10T19:01:53.129Z,101292.88
2022-10-10T19:04:25.090Z,101290.09
2022-10-10T19:06:57.447Z,101290.34
2022-10-10T19:09:26.881Z,101290.09
2022-10-10T19:11:55.327Z,101303.88
2022-10-10T19:14:25.144Z,101315.28
2022-10-10T19:16:53.822Z,101322.44
2022-10-10T19:19:22.229Z,101324.78
2022-10-10T19:21:50.679Z,101324.19
2022-10-10T19:24:21.634Z,101332.03
2022-10-10T19:26:56.759Z,101345.81
2022-10-10T19:29:27.706Z,101337.75
2022-10-10T19:31:56.043Z,101349.28
2022-10-10T19:34:27.608Z,101354.19
2022-10-10T19:36:56.530Z,101361.09
2022-10-10T19:39:24.492Z,101365.25
2022-10-10T19:41:52.476Z,101369.78
2022-10-10T19:44:23.332Z,101367.34
2022-10-10T19:46:52.681Z,101373.66
2022-10-10T19:49:21.247Z,101382.97
2022-10-10T19:51:49.243Z,101387.97
2022-10-10T19:54:18.987Z,101394.28
2022-10-10T19:56:47.059Z,101395.06
2022-10-10T19:59:16.290Z,101398.19
2022-10-10T20:01:44.841Z,101412.31
2022-10-10T20:04:14.321Z,101407.16
2022-10-10T20:06:43.610Z,101418.94
2022-10-10T20:09:12.050Z,101423.16
2022-10-10T20:11:40.588Z,101429.53
2022-10-10T20:14:08.976Z,101434.25
2022-10-10T20:16:37.345Z,101441.34
2022-10-10T20:19:05.843Z,101440.28
2022-10-10T20:21:37.525Z,101454.31
2022-10-10T20:24:07.922Z,101454.50
2022-10-10T20:26:36.948Z,101462.22
2022-10-10T20:29:05.929Z,101476.69
2022-10-10T20:31:37.452Z,101477.97
2022-10-10T20:34:07.301Z,101471.94
2022-10-10T20:36:37.232Z,101481.78
2022-10-10T20:39:07.961Z,101482.94
2022-10-10T20:41:37.470Z,101485.97
2022-10-10T20:44:07.344Z,101490.41
2022-10-10T20:46:39.470Z,101494.03
2022-10-10T20:49:18.199Z,101498.16
2022-10-10T20:51:50.272Z,101506.31
2022-10-10T20:54:21.912Z,101502.94
2022-10-10T20:56:50.713Z,101510.50
2022-10-10T20:59:24.466Z,101510.44
2022-10-10T21:01:53.238Z,101514.88
2022-10-10T21:04:21.925Z,101516.88
2022-10-10T21:06:54.836Z,101520.84
2022-10-10T21:09:26.950Z,101520.09
2022-10-10T21:11:56.277Z,101528.34
2022-10-10T21:14:24.347Z,101531.72
2022-10-10T21:16:54.171Z,101539.94
2022-10-10T21:19:22.337Z,101538.09
2022-10-10T21:21:50.827Z,101546.41
2022-10-10T21:24:20.666Z,101545.47
2022-10-10T21:26:50.846Z,101548.00
2022-10-10T21:29:19.577Z,101554.28
2022-10-10T21:31:47.816Z,101557.06
2022-10-10T21:34:18.999Z,101559.53
2022-10-10T21:36:47.363Z,101564.91
2022-10-10T21:39:15.889Z,101567.56
2022-10-10T21:41:45.619Z,101576.31
2022-10-10T21:44:16.216Z,101571.03
2022-10-10T21:46:44.598Z,101573.78
2022-10-10T21:49:13.545Z,101582.16
2022-10-10T21:51:45.577Z,101587.00
2022-10-10T21:54:13.867Z,101589.00
2022-10-10T21:56:41.892Z,101590.09
2022-10-10T21:59:12.262Z,101597.66
2022-10-10T22:01:40.159Z,101590.25
2022-10-10T22:04:08.119Z,101598.72
2022-10-10T22:06:36.152Z,101597.59
2022-10-10T22:09:05.229Z,101600.22
2022-10-10T22:11:34.794Z,101608.34
2022-10-10T22:14:03.510Z,101610.06
2022-10-10T22:16:33.587Z,101610.97
2022-10-10T22:19:02.022Z,101616.28
2022-10-10T22:21:32.210Z,101623.50
2022-10-10T22:24:01.974Z,101616.84
2022-10-10T22:26:30.271Z,101619.22
2022-10-10T22:28:58.616Z,101626.28
2022-10-10T22:31:26.788Z,101621.91
2022-10-10T22:33:56.098Z,101625.56
2022-10-10T22:36:24.128Z,101625.56
2022-10-10T22:38:52.094Z,101634.19
2022-10-10T22:41:20.355Z,101634.19
2022-10-10T22:43:49.666Z,101641.56
2022-10-10T22:46:17.845Z,101645.09
2022-10-10T22:48:45.940Z,101635.22
2022-10-10T22:51:17.822Z,101648.69
2022-10-10T22:53:47.233Z,101646.19
2022-10-10T22:56:17.183Z,101650.31
2022-10-10T22:58:45.848Z,101652.84
2022-10-10T23:01:17.205Z,101652.34
2022-10-10T23:03:45.720Z,101651.19
2022-10-10T23:06:15.748Z,101658.41
2022-10-10T23:08:43.921Z,101667.28
2022-10-10T23:11:11.844Z,101654.22
2022-10-10T23:13:39.829Z,101656.03
2022-10-10T23:16:08.876Z,101653.16
2022-10-10T23:18:37.275Z,101652.25
2022-10-10T23:21:07.018Z,101653.25
2022-10-10T23:23:36.457Z,101652.47
2022-10-10T23:26:07.050Z,101658.72
2022-10-10T23:28:36.466Z,101661.03
2022-10-10T23:31:06.511Z,101656.84
2022-10-10T23:33:37.080Z,101656.75
2022-10-10T23:36:07.888Z,101664.66
2022-10-10T23:38:38.542Z,101677.13
2022-10-10T23:41:06.965Z,101672.69
2022-10-10T23:43:35.722Z,101677.47
2022-10-10T23:46:04.242Z,101675.59
2022-10-10T23:48:32.613Z,101683.69
2022-10-10T23:51:00.607Z,101677.72
2022-10-10T23:53:28.604Z,101685.50
2022-10-10T23:56:00.308Z,101690.75
2022-10-10T23:58:28.455Z,101688.31
